sensor_id;sensor_type;location;lat;lon;timestamp;temperature;humidity
20700;DHT22;10511;51.232;9.420;2022-11-15T00:01:22;11.20;99.90
20700;DHT22;10511;51.232;9.420;2022-11-15T00:03:50;11.20;99.90
20700;DHT22;10511;51.232;9.420;2022-11-15T00:06:18;11.10;99.90
20700;DHT22;10511;51.232;9.420;2022-11-15T00:08:46;11.10;99.90
20700;DHT22;10511;51.232;9.420;2022-11-15T00:11:13;11.10;99.90
20700;DHT22;10511;51.232;9.420;2022-11-15T00:13:40;11.10;99.90
20700;DHT22;10511;51.232;9.420;2022-11-15T00:16:08;11.00;99.90
20700;DHT22;10511;51.232;9.420;2022-11-15T00:18:35;11.00;99.90
20700;DHT22;10511;51.232;9.420;2022-11-15T00:21:06;11.00;99.90
20700;DHT22;10511;51.232;9.420;2022-11-15T00:23:33;10.90;99.90
20700;DHT22;10511;51.232;9.420;2022-11-15T00:26:02;10.90;99.90
20700;DHT22;10511;51.232;9.420;2022-11-15T00:28:29;10.90;99.90
20700;DHT22;10511;51.232;9.420;2022-11-15T00:31:00;10.90;99.90
20700;DHT22;10511;51.232;9.420;2022-11-15T00:33:28;11.00;99.90
20700;DHT22;10511;51.232;9.420;2022-11-15T00:35:59;11.00;99.90
20700;DHT22;10511;51.232;9.420;2022-11-15T00:38:31;11.10;99.90
20700;DHT22;10511;51.232;9.420;2022-11-15T00:40:58;11.10;99.90
20700;DHT22;10511;51.232;9.420;2022-11-15T00:43:26;11.20;99.90
20700;DHT22;10511;51.232;9.420;2022-11-15T00:45:53;11.20;99.90
20700;DHT22;10511;51.232;9.420;2022-11-15T00:48:22;11.30;99.90
20700;DHT22;10511;51.232;9.420;2022-11-15T00:50:49;11.30;99.90
20700;DHT22;10511;51.232;9.420;2022-11-15T00:53:16;11.20;99.90
20700;DHT22;10511;51.232;9.420;2022-11-15T00:55:43;11.20;99.90
20700;DHT22;10511;51.232;9.420;2022-11-15T00:58:10;11.10;99.90
20700;DHT22;10511;51.232;9.420;2022-11-15T01:00:38;11.10;99.90
20700;DHT22;10511;51.232;9.420;2022-11-15T01:03:05;11.00;99.90
20700;DHT22;10511;51.232;9.420;2022-11-15T01:05:32;11.00;99.90
20700;DHT22;10511;51.232;9.420;2022-11-15T01:07:59;11.00;99.90
20700;DHT22;10511;51.232;9.420;2022-11-15T01:10:26;11.00;99.90
20700;DHT22;10511;51.232;9.420;2022-11-15T01:12:53;11.10;99.90
20700;DHT22;10511;51.232;9.420;2022-11-15T01:15:20;11.10;99.90
20700;DHT22;10511;51.232;9.420;2022-11-15T01:17:49;11.10;99.90
20700;DHT22;10511;51.232;9.420;2022-11-15T01:20:16;11.20;99.90
20700;DHT22;10511;51.232;9.420;2022-11-15T01:22:44;11.10;99.90
20700;DHT22;10511;51.232;9.420;2022-11-15T01:25:11;11.10;99.90
20700;DHT22;10511;51.232;9.420;2022-11-15T01:27:38;11.10;99.90
20700;DHT22;10511;51.232;9.420;2022-11-15T01:30:06;11.10;99.90
20700;DHT22;10511;51.232;9.420;2022-11-15T01:32:33;11.10;99.90
20700;DHT22;10511;51.232;9.420;2022-11-15T01:35:02;11.10;99.90
20700;DHT22;10511;51.232;9.420;2022-11-15T01:37:29;11.10;99.90
20700;DHT22;10511;51.232;9.420;2022-11-15T01:39:56;11.10;99.90
20700;DHT22;10511;51.232;9.420;2022-11-15T01:42:23;11.10;99.90
20700;DHT22;10511;51.232;9.420;2022-11-15T01:44:51;11.10;99.90
20700;DHT22;10511;51.232;9.420;2022-11-15T01:47:22;11.10;99.90
20700;DHT22;10511;51.232;9.420;2022-11-15T01:49:54;11.10;99.90
20700;DHT22;10511;51.232;9.420;2022-11-15T01:52:25;11.00;99.90
20700;DHT22;10511;51.232;9.420;2022-11-15T01:54:55;10.90;99.90
20700;DHT22;10511;51.232;9.420;2022-11-15T01:57:23;10.90;99.90
20700;DHT22;10511;51.232;9.420;2022-11-15T01:59:50;10.80;99.90
20700;DHT22;10511;51.232;9.420;2022-11-15T02:02:17;10.90;99.90
20700;DHT22;10511;51.232;9.420;2022-11-15T02:04:46;10.80;99.90
20700;DHT22;10511;51.232;9.420;2022-11-15T02:07:16;10.90;99.90
20700;DHT22;10511;51.232;9.420;2022-11-15T02:09:45;10.90;99.90
20700;DHT22;10511;51.232;9.420;2022-11-15T02:12:15;10.80;99.90
20700;DHT22;10511;51.232;9.420;2022-11-15T02:14:45;10.60;99.90
20700;DHT22;10511;51.232;9.420;2022-11-15T02:17:26;10.50;99.90
20700;DHT22;10511;51.232;9.420;2022-11-15T02:26:34;10.40;99.90
20700;DHT22;10511;51.232;9.420;2022-11-15T02:29:06;10.30;99.90
20700;DHT22;10511;51.232;9.420;2022-11-15T02:31:43;10.30;99.90
20700;DHT22;10511;51.232;9.420;2022-11-15T02:34:20;10.10;99.90
20700;DHT22;10511;51.232;9.420;2022-11-15T02:37:00;10.00;99.90
20700;DHT22;10511;51.232;9.420;2022-11-15T02:39:34;10.00;99.90
20700;DHT22;10511;51.232;9.420;2022-11-15T02:42:04;10.00;99.90
20700;DHT22;10511;51.232;9.420;2022-11-15T02:44:55;10.10;99.90
20700;DHT22;10511;51.232;9.420;2022-11-15T02:47:24;10.20;99.90
20700;DHT22;10511;51.232;9.420;2022-11-15T02:49:57;10.20;99.90
20700;DHT22;10511;51.232;9.420;2022-11-15T02:52:25;10.20;99.90
20700;DHT22;10511;51.232;9.420;2022-11-15T02:54:54;10.20;99.90
20700;DHT22;10511;51.232;9.420;2022-11-15T02:57:29;10.20;99.90
20700;DHT22;10511;51.232;9.420;2022-11-15T03:00:08;10.20;99.90
20700;DHT22;10511;51.232;9.420;2022-11-15T03:02:57;10.20;99.90
20700;DHT22;10511;51.232;9.420;2022-11-15T03:05:35;10.30;99.90
20700;DHT22;10511;51.232;9.420;2022-11-15T03:08:08;10.40;99.90
20700;DHT22;10511;51.232;9.420;2022-11-15T03:10:42;10.40;99.90
20700;DHT22;10511;51.232;9.420;2022-11-15T03:13:20;10.40;99.90
20700;DHT22;10511;51.232;9.420;2022-11-15T03:15:53;10.50;99.90
20700;DHT22;10511;51.232;9.420;2022-11-15T03:18:31;10.60;99.90
20700;DHT22;10511;51.232;9.420;2022-11-15T03:21:01;10.60;99.90
20700;DHT22;10511;51.232;9.420;2022-11-15T03:23:30;10.70;99.90
20700;DHT22;10511;51.232;9.420;2022-11-15T03:25:59;10.70;99.90
20700;DHT22;10511;51.232;9.420;2022-11-15T03:28:34;10.70;99.90
20700;DHT22;10511;51.232;9.420;2022-11-15T03:31:03;10.60;99.90
20700;DHT22;10511;51.232;9.420;2022-11-15T03:33:54;10.60;99.90
20700;DHT22;10511;51.232;9.420;2022-11-15T03:36:23;10.60;99.90
20700;DHT22;10511;51.232;9.420;2022-11-15T03:38:54;10.50;99.90
20700;DHT22;10511;51.232;9.420;2022-11-15T03:41:25;10.40;99.90
20700;DHT22;10511;51.232;9.420;2022-11-15T03:43:59;10.30;99.90
20700;DHT22;10511;51.232;9.420;2022-11-15T03:46:32;10.20;99.90
20700;DHT22;10511;51.232;9.420;2022-11-15T03:49:06;10.20;99.90
20700;DHT22;10511;51.232;9.420;2022-11-15T03:51:35;10.20;99.90
20700;DHT22;10511;51.232;9.420;2022-11-15T03:54:03;10.10;99.90
20700;DHT22;10511;51.232;9.420;2022-11-15T03:56:30;10.10;99.90
20700;DHT22;10511;51.232;9.420;2022-11-15T03:58:57;10.10;99.90
20700;DHT22;10511;51.232;9.420;2022-11-15T04:01:24;10.00;99.90
20700;DHT22;10511;51.232;9.420;2022-11-15T04:03:51;10.00;99.90
20700;DHT22;10511;51.232;9.420;2022-11-15T04:06:20;10.00;99.90
20700;DHT22;10511;51.232;9.420;2022-11-15T04:08:47;10.00;99.90
20700;DHT22;10511;51.232;9.420;2022-11-15T04:11:13;9.90;99.90
20700;DHT22;10511;51.232;9.420;2022-11-15T04:13:40;9.90;99.90
20700;DHT22;10511;51.232;9.420;2022-11-15T04:16:07;9.80;99.90
20700;DHT22;10511;51.232;9.420;2022-11-15T04:18:34;9.90;99.90
20700;DHT22;10511;51.232;9.420;2022-11-15T04:21:01;9.80;99.90
20700;DHT22;10511;51.232;9.420;2022-11-15T04:23:47;9.80;99.90
20700;DHT22;10511;51.232;9.420;2022-11-15T04:26:31;9.80;99.90
20700;DHT22;10511;51.232;9.420;2022-11-15T04:28:58;9.80;99.90
20700;DHT22;10511;51.232;9.420;2022-11-15T04:31:43;9.90;99.90
20700;DHT22;10511;51.232;9.420;2022-11-15T04:34:10;10.00;99.90
20700;DHT22;10511;51.232;9.420;2022-11-15T04:36:37;10.10;99.90
20700;DHT22;10511;51.232;9.420;2022-11-15T04:39:23;10.10;99.90
20700;DHT22;10511;51.232;9.420;2022-11-15T04:41:50;10.20;99.90
20700;DHT22;10511;51.232;9.420;2022-11-15T04:44:16;10.10;99.90
20700;DHT22;10511;51.232;9.420;2022-11-15T04:46:43;10.10;99.90
20700;DHT22;10511;51.232;9.420;2022-11-15T04:49:11;10.00;99.90
20700;DHT22;10511;51.232;9.420;2022-11-15T04:51:38;10.00;99.90
20700;DHT22;10511;51.232;9.420;2022-11-15T04:54:05;9.90;99.90
20700;DHT22;10511;51.232;9.420;2022-11-15T04:56:33;9.80;99.90
20700;DHT22;10511;51.232;9.420;2022-11-15T04:59:00;9.70;99.90
20700;DHT22;10511;51.232;9.420;2022-11-15T05:01:27;9.80;99.90
20700;DHT22;10511;51.232;9.420;2022-11-15T05:03:54;9.80;99.90
20700;DHT22;10511;51.232;9.420;2022-11-15T05:06:35;9.70;99.90
20700;DHT22;10511;51.232;9.420;2022-11-15T05:09:03;9.70;99.90
20700;DHT22;10511;51.232;9.420;2022-11-15T05:11:30;9.70;99.90
20700;DHT22;10511;51.232;9.420;2022-11-15T05:13:59;9.70;99.90
20700;DHT22;10511;51.232;9.420;2022-11-15T05:16:26;9.80;99.90
20700;DHT22;10511;51.232;9.420;2022-11-15T05:18:53;9.80;99.90
20700;DHT22;10511;51.232;9.420;2022-11-15T05:21:20;9.90;99.90
20700;DHT22;10511;51.232;9.420;2022-11-15T05:23:47;9.90;99.90
20700;DHT22;10511;51.232;9.420;2022-11-15T05:26:16;9.90;99.90
20700;DHT22;10511;51.232;9.420;2022-11-15T05:28:43;10.00;99.90
20700;DHT22;10511;51.232;9.420;2022-11-15T05:31:13;10.00;99.90
20700;DHT22;10511;51.232;9.420;2022-11-15T05:33:42;10.10;99.90
20700;DHT22;10511;51.232;9.420;2022-11-15T05:36:13;10.20;99.90
20700;DHT22;10511;51.232;9.420;2022-11-15T05:38:44;10.20;99.90
20700;DHT22;10511;51.232;9.420;2022-11-15T05:41:12;10.10;99.90
20700;DHT22;10511;51.232;9.420;2022-11-15T05:43:40;10.10;99.90
20700;DHT22;10511;51.232;9.420;2022-11-15T05:46:09;10.10;99.90
20700;DHT22;10511;51.232;9.420;2022-11-15T05:48:40;10.00;99.90
20700;DHT22;10511;51.232;9.420;2022-11-15T05:51:08;10.00;99.90
20700;DHT22;10511;51.232;9.420;2022-11-15T05:53:35;10.00;99.90
20700;DHT22;10511;51.232;9.420;2022-11-15T05:56:03;10.00;99.90
20700;DHT22;10511;51.232;9.420;2022-11-15T05:58:31;10.00;99.90
20700;DHT22;10511;51.232;9.420;2022-11-15T06:00:59;10.10;99.90
20700;DHT22;10511;51.232;9.420;2022-11-15T06:03:26;10.10;99.90
20700;DHT22;10511;51.232;9.420;2022-11-15T06:05:56;10.20;99.90
20700;DHT22;10511;51.232;9.420;2022-11-15T06:08:23;10.10;99.90
20700;DHT22;10511;51.232;9.420;2022-11-15T06:10:50;10.20;99.90
20700;DHT22;10511;51.232;9.420;2022-11-15T06:13:17;10.20;99.90
20700;DHT22;10511;51.232;9.420;2022-11-15T06:15:44;10.30;99.90
20700;DHT22;10511;51.232;9.420;2022-11-15T06:18:11;10.30;99.90
20700;DHT22;10511;51.232;9.420;2022-11-15T06:20:38;10.30;99.90
20700;DHT22;10511;51.232;9.420;2022-11-15T06:23:06;10.20;99.90
20700;DHT22;10511;51.232;9.420;2022-11-15T06:25:33;10.10;99.90
20700;DHT22;10511;51.232;9.420;2022-11-15T06:28:00;10.00;99.90
20700;DHT22;10511;51.232;9.420;2022-11-15T06:30:27;9.90;99.90
20700;DHT22;10511;51.232;9.420;2022-11-15T06:33:05;9.90;99.90
20700;DHT22;10511;51.232;9.420;2022-11-15T06:35:33;9.90;99.90
20700;DHT22;10511;51.232;9.420;2022-11-15T06:38:07;9.80;99.90
20700;DHT22;10511;51.232;9.420;2022-11-15T06:40:35;9.80;99.90
20700;DHT22;10511;51.232;9.420;2022-11-15T06:43:02;9.90;99.90
20700;DHT22;10511;51.232;9.420;2022-11-15T06:45:29;9.90;99.90
20700;DHT22;10511;51.232;9.420;2022-11-15T06:47:57;9.90;99.90
20700;DHT22;10511;51.232;9.420;2022-11-15T06:50:24;9.90;99.90
20700;DHT22;10511;51.232;9.420;2022-11-15T06:52:51;10.00;99.90
20700;DHT22;10511;51.232;9.420;2022-11-15T06:55:19;10.00;99.90
20700;DHT22;10511;51.232;9.420;2022-11-15T06:57:47;10.10;99.90
20700;DHT22;10511;51.232;9.420;2022-11-15T07:00:16;10.00;99.90
20700;DHT22;10511;51.232;9.420;2022-11-15T07:02:43;10.10;99.90
20700;DHT22;10511;51.232;9.420;2022-11-15T07:05:10;10.20;99.90
20700;DHT22;10511;51.232;9.420;2022-11-15T07:07:37;10.20;99.90
20700;DHT22;10511;51.232;9.420;2022-11-15T07:10:06;10.20;99.90
20700;DHT22;10511;51.232;9.420;2022-11-15T07:12:34;10.20;99.90
20700;DHT22;10511;51.232;9.420;2022-11-15T07:15:01;10.20;99.90
20700;DHT22;10511;51.232;9.420;2022-11-15T07:17:28;10.10;99.90
20700;DHT22;10511;51.232;9.420;2022-11-15T07:19:55;10.10;99.90
20700;DHT22;10511;51.232;9.420;2022-11-15T07:22:22;10.10;99.90
20700;DHT22;10511;51.232;9.420;2022-11-15T07:24:49;10.10;99.90
20700;DHT22;10511;51.232;9.420;2022-11-15T07:27:16;10.10;99.90
20700;DHT22;10511;51.232;9.420;2022-11-15T07:29:44;10.10;99.90
20700;DHT22;10511;51.232;9.420;2022-11-15T07:32:11;10.20;99.90
20700;DHT22;10511;51.232;9.420;2022-11-15T07:34:38;10.10;99.90
20700;DHT22;10511;51.232;9.420;2022-11-15T07:37:05;10.00;99.90
20700;DHT22;10511;51.232;9.420;2022-11-15T07:39:33;10.00;99.90
20700;DHT22;10511;51.232;9.420;2022-11-15T07:42:00;10.00;99.90
20700;DHT22;10511;51.232;9.420;2022-11-15T07:44:45;10.00;99.90
20700;DHT22;10511;51.232;9.420;2022-11-15T07:47:12;10.00;99.90
20700;DHT22;10511;51.232;9.420;2022-11-15T07:49:39;10.10;99.90
20700;DHT22;10511;51.232;9.420;2022-11-15T07:52:06;10.10;99.90
20700;DHT22;10511;51.232;9.420;2022-11-15T07:54:33;10.10;99.90
20700;DHT22;10511;51.232;9.420;2022-11-15T07:57:00;10.00;99.90
20700;DHT22;10511;51.232;9.420;2022-11-15T07:59:27;10.10;99.90
20700;DHT22;10511;51.232;9.420;2022-11-15T08:01:55;10.10;99.90
20700;DHT22;10511;51.232;9.420;2022-11-15T08:04:22;10.20;99.90
20700;DHT22;10511;51.232;9.420;2022-11-15T08:06:49;10.20;99.90
20700;DHT22;10511;51.232;9.420;2022-11-15T08:09:16;10.30;99.90
20700;DHT22;10511;51.232;9.420;2022-11-15T08:11:43;10.40;99.90
20700;DHT22;10511;51.232;9.420;2022-11-15T08:14:10;10.40;99.90
20700;DHT22;10511;51.232;9.420;2022-11-15T08:16:37;10.50;99.90
20700;DHT22;10511;51.232;9.420;2022-11-15T08:19:05;10.60;99.90
20700;DHT22;10511;51.232;9.420;2022-11-15T08:21:32;10.70;99.90
20700;DHT22;10511;51.232;9.420;2022-11-15T08:23:59;10.70;99.90
20700;DHT22;10511;51.232;9.420;2022-11-15T08:26:27;10.70;99.90
20700;DHT22;10511;51.232;9.420;2022-11-15T08:28:55;10.80;99.90
20700;DHT22;10511;51.232;9.420;2022-11-15T08:31:22;10.70;99.90
20700;DHT22;10511;51.232;9.420;2022-11-15T08:33:49;10.70;99.90
20700;DHT22;10511;51.232;9.420;2022-11-15T08:36:18;10.70;99.90
20700;DHT22;10511;51.232;9.420;2022-11-15T08:38:44;10.70;99.90
20700;DHT22;10511;51.232;9.420;2022-11-15T08:41:14;10.80;99.90
20700;DHT22;10511;51.232;9.420;2022-11-15T08:43:44;10.80;99.90
20700;DHT22;10511;51.232;9.420;2022-11-15T08:46:12;10.90;99.90
20700;DHT22;10511;51.232;9.420;2022-11-15T08:48:39;10.90;99.90
20700;DHT22;10511;51.232;9.420;2022-11-15T08:51:06;11.00;99.90
20700;DHT22;10511;51.232;9.420;2022-11-15T08:53:35;11.00;99.90
20700;DHT22;10511;51.232;9.420;2022-11-15T08:56:02;11.00;99.90
20700;DHT22;10511;51.232;9.420;2022-11-15T08:58:33;11.10;99.90
20700;DHT22;10511;51.232;9.420;2022-11-15T09:01:00;11.00;99.90
20700;DHT22;10511;51.232;9.420;2022-11-15T09:03:27;11.00;99.90
20700;DHT22;10511;51.232;9.420;2022-11-15T09:05:55;11.20;99.90
20700;DHT22;10511;51.232;9.420;2022-11-15T09:08:22;11.30;99.90
20700;DHT22;10511;51.232;9.420;2022-11-15T09:10:51;11.30;99.90
20700;DHT22;10511;51.232;9.420;2022-11-15T09:13:18;11.40;99.90
20700;DHT22;10511;51.232;9.420;2022-11-15T09:15:45;11.30;99.90
20700;DHT22;10511;51.232;9.420;2022-11-15T09:18:12;11.30;99.90
20700;DHT22;10511;51.232;9.420;2022-11-15T09:20:39;11.20;99.90
20700;DHT22;10511;51.232;9.420;2022-11-15T09:23:06;11.40;99.90
20700;DHT22;10511;51.232;9.420;2022-11-15T09:25:33;11.60;99.90
20700;DHT22;10511;51.232;9.420;2022-11-15T09:28:06;11.60;99.90
20700;DHT22;10511;51.232;9.420;2022-11-15T09:30:33;11.50;99.90
20700;DHT22;10511;51.232;9.420;2022-11-15T09:33:06;11.50;99.90
20700;DHT22;10511;51.232;9.420;2022-11-15T09:35:33;11.50;99.90
20700;DHT22;10511;51.232;9.420;2022-11-15T09:38:00;11.60;99.90
20700;DHT22;10511;51.232;9.420;2022-11-15T09:40:29;11.70;99.90
20700;DHT22;10511;51.232;9.420;2022-11-15T09:43:08;11.70;99.90
20700;DHT22;10511;51.232;9.420;2022-11-15T09:45:41;11.70;99.90
20700;DHT22;10511;51.232;9.420;2022-11-15T09:48:47;11.70;99.90
20700;DHT22;10511;51.232;9.420;2022-11-15T09:51:23;11.70;99.90
20700;DHT22;10511;51.232;9.420;2022-11-15T09:53:57;11.80;99.90
20700;DHT22;10511;51.232;9.420;2022-11-15T09:56:27;11.70;99.90
20700;DHT22;10511;51.232;9.420;2022-11-15T09:59:02;11.70;99.90
20700;DHT22;10511;51.232;9.420;2022-11-15T10:01:39;11.70;99.90
20700;DHT22;10511;51.232;9.420;2022-11-15T10:04:08;11.70;99.90
20700;DHT22;10511;51.232;9.420;2022-11-15T10:06:37;11.70;99.90
20700;DHT22;10511;51.232;9.420;2022-11-15T10:09:13;11.80;99.90
20700;DHT22;10511;51.232;9.420;2022-11-15T10:11:42;11.80;99.90
20700;DHT22;10511;51.232;9.420;2022-11-15T10:14:14;11.80;99.90
20700;DHT22;10511;51.232;9.420;2022-11-15T10:17:10;11.90;99.90
20700;DHT22;10511;51.232;9.420;2022-11-15T10:19:47;11.90;99.90
20700;DHT22;10511;51.232;9.420;2022-11-15T10:22:29;11.90;99.90
20700;DHT22;10511;51.232;9.420;2022-11-15T10:25:12;11.90;99.90
20700;DHT22;10511;51.232;9.420;2022-11-15T10:27:42;12.00;99.90
20700;DHT22;10511;51.232;9.420;2022-11-15T10:30:14;12.00;99.90
20700;DHT22;10511;51.232;9.420;2022-11-15T10:32:43;12.10;99.90
20700;DHT22;10511;51.232;9.420;2022-11-15T10:35:18;12.20;99.90
20700;DHT22;10511;51.232;9.420;2022-11-15T10:37:45;12.30;99.90
20700;DHT22;10511;51.232;9.420;2022-11-15T10:40:17;12.30;99.90
20700;DHT22;10511;51.232;9.420;2022-11-15T10:42:45;12.40;99.90
20700;DHT22;10511;51.232;9.420;2022-11-15T10:45:28;12.40;99.90
20700;DHT22;10511;51.232;9.420;2022-11-15T10:48:21;12.40;99.90
20700;DHT22;10511;51.232;9.420;2022-11-15T10:50:50;12.50;99.90
20700;DHT22;10511;51.232;9.420;2022-11-15T10:53:22;12.50;99.90
20700;DHT22;10511;51.232;9.420;2022-11-15T10:55:52;12.50;99.90
20700;DHT22;10511;51.232;9.420;2022-11-15T10:58:26;12.50;99.90
20700;DHT22;10511;51.232;9.420;2022-11-15T11:01:09;12.60;99.90
20700;DHT22;10511;51.232;9.420;2022-11-15T11:03:38;12.60;99.90
20700;DHT22;10511;51.232;9.420;2022-11-15T11:06:08;12.60;99.90
20700;DHT22;10511;51.232;9.420;2022-11-15T11:08:35;12.60;99.90
20700;DHT22;10511;51.232;9.420;2022-11-15T11:11:04;12.60;99.90
20700;DHT22;10511;51.232;9.420;2022-11-15T11:13:35;12.60;99.90
20700;DHT22;10511;51.232;9.420;2022-11-15T11:16:30;12.60;99.90
20700;DHT22;10511;51.232;9.420;2022-11-15T11:19:08;12.60;99.90
20700;DHT22;10511;51.232;9.420;2022-11-15T11:21:49;12.60;99.90
20700;DHT22;10511;51.232;9.420;2022-11-15T11:24:22;12.70;99.90
20700;DHT22;10511;51.232;9.420;2022-11-15T11:27:05;12.70;99.90
20700;DHT22;10511;51.232;9.420;2022-11-15T11:29:43;12.70;99.90
20700;DHT22;10511;51.232;9.420;2022-11-15T11:32:27;12.80;99.90
20700;DHT22;10511;51.232;9.420;2022-11-15T11:35:01;12.80;99.90
20700;DHT22;10511;51.232;9.420;2022-11-15T11:37:35;12.90;99.90
20700;DHT22;10511;51.232;9.420;2022-11-15T11:40:20;12.80;99.90
20700;DHT22;10511;51.232;9.420;2022-11-15T11:42:54;12.80;99.90
20700;DHT22;10511;51.232;9.420;2022-11-15T11:45:44;12.90;99.90
20700;DHT22;10511;51.232;9.420;2022-11-15T11:48:23;12.90;99.90
20700;DHT22;10511;51.232;9.420;2022-11-15T11:50:52;12.80;99.90
20700;DHT22;10511;51.232;9.420;2022-11-15T11:53:37;12.90;99.90
20700;DHT22;10511;51.232;9.420;2022-11-15T11:56:14;12.90;99.90
20700;DHT22;10511;51.232;9.420;2022-11-15T11:58:44;13.00;99.90
20700;DHT22;10511;51.232;9.420;2022-11-15T12:01:16;13.00;99.90
20700;DHT22;10511;51.232;9.420;2022-11-15T12:03:49;13.10;99.90
20700;DHT22;10511;51.232;9.420;2022-11-15T12:06:24;13.10;99.90
20700;DHT22;10511;51.232;9.420;2022-11-15T12:08:56;13.20;99.90
20700;DHT22;10511;51.232;9.420;2022-11-15T12:11:29;13.10;99.90
20700;DHT22;10511;51.232;9.420;2022-11-15T12:14:01;13.20;99.90
20700;DHT22;10511;51.232;9.420;2022-11-15T12:16:31;13.20;99.90
20700;DHT22;10511;51.232;9.420;2022-11-15T12:19:02;13.30;99.90
20700;DHT22;10511;51.232;9.420;2022-11-15T12:21:36;13.40;99.90
20700;DHT22;10511;51.232;9.420;2022-11-15T12:24:11;13.40;99.90
20700;DHT22;10511;51.232;9.420;2022-11-15T12:26:44;13.40;99.90
20700;DHT22;10511;51.232;9.420;2022-11-15T12:29:16;13.40;99.90
20700;DHT22;10511;51.232;9.420;2022-11-15T12:31:49;13.40;99.90
20700;DHT22;10511;51.232;9.420;2022-11-15T12:34:36;13.40;99.90
20700;DHT22;10511;51.232;9.420;2022-11-15T12:37:32;13.40;99.90
20700;DHT22;10511;51.232;9.420;2022-11-15T12:40:20;13.30;99.90
20700;DHT22;10511;51.232;9.420;2022-11-15T12:45:40;13.50;99.90
20700;DHT22;10511;51.232;9.420;2022-11-15T12:54:56;13.40;99.90
20700;DHT22;10511;51.232;9.420;2022-11-15T12:57:38;13.40;99.90
20700;DHT22;10511;51.232;9.420;2022-11-15T13:03:24;13.40;99.90
20700;DHT22;10511;51.232;9.420;2022-11-15T13:06:08;13.50;99.90
20700;DHT22;10511;51.232;9.420;2022-11-15T13:08:42;13.50;99.90
20700;DHT22;10511;51.232;9.420;2022-11-15T13:11:45;13.70;99.90
20700;DHT22;10511;51.232;9.420;2022-11-15T13:14:41;13.70;99.90
20700;DHT22;10511;51.232;9.420;2022-11-15T13:17:30;13.90;99.90
20700;DHT22;10511;51.232;9.420;2022-11-15T13:20:07;14.00;99.90
20700;DHT22;10511;51.232;9.420;2022-11-15T13:22:41;14.00;99.90
20700;DHT22;10511;51.232;9.420;2022-11-15T13:28:35;13.90;99.90
20700;DHT22;10511;51.232;9.420;2022-11-15T13:31:19;13.90;99.90
20700;DHT22;10511;51.232;9.420;2022-11-15T13:33:47;13.80;99.90
20700;DHT22;10511;51.232;9.420;2022-11-15T13:36:20;13.80;99.90
20700;DHT22;10511;51.232;9.420;2022-11-15T13:38:55;13.80;99.90
20700;DHT22;10511;51.232;9.420;2022-11-15T13:41:26;13.70;99.90
20700;DHT22;10511;51.232;9.420;2022-11-15T13:43:54;13.70;99.90
20700;DHT22;10511;51.232;9.420;2022-11-15T13:46:22;13.70;99.90
20700;DHT22;10511;51.232;9.420;2022-11-15T13:48:54;13.70;99.90
20700;DHT22;10511;51.232;9.420;2022-11-15T13:51:28;13.70;99.90
20700;DHT22;10511;51.232;9.420;2022-11-15T13:53:58;13.60;99.90
20700;DHT22;10511;51.232;9.420;2022-11-15T13:56:28;13.60;99.90
20700;DHT22;10511;51.232;9.420;2022-11-15T13:58:56;13.70;99.90
20700;DHT22;10511;51.232;9.420;2022-11-15T14:01:25;13.70;99.90
20700;DHT22;10511;51.232;9.420;2022-11-15T14:03:57;13.70;99.90
20700;DHT22;10511;51.232;9.420;2022-11-15T14:06:25;13.70;99.90
20700;DHT22;10511;51.232;9.420;2022-11-15T14:12:27;13.60;99.90
20700;DHT22;10511;51.232;9.420;2022-11-15T14:14:56;13.70;99.90
20700;DHT22;10511;51.232;9.420;2022-11-15T14:17:35;13.70;99.90
20700;DHT22;10511;51.232;9.420;2022-11-15T14:20:19;13.70;99.90
20700;DHT22;10511;51.232;9.420;2022-11-15T14:22:54;13.60;99.90
20700;DHT22;10511;51.232;9.420;2022-11-15T14:25:23;13.60;99.90
20700;DHT22;10511;51.232;9.420;2022-11-15T14:28:16;13.60;99.90
20700;DHT22;10511;51.232;9.420;2022-11-15T14:30:56;13.60;99.90
20700;DHT22;10511;51.232;9.420;2022-11-15T14:33:27;13.60;99.90
20700;DHT22;10511;51.232;9.420;2022-11-15T14:35:55;13.50;99.90
20700;DHT22;10511;51.232;9.420;2022-11-15T14:38:23;13.50;99.90
20700;DHT22;10511;51.232;9.420;2022-11-15T14:40:50;13.50;99.90
20700;DHT22;10511;51.232;9.420;2022-11-15T14:43:19;13.30;99.90
20700;DHT22;10511;51.232;9.420;2022-11-15T14:45:46;13.30;99.90
20700;DHT22;10511;51.232;9.420;2022-11-15T14:48:13;13.40;99.90
20700;DHT22;10511;51.232;9.420;2022-11-15T14:50:40;13.30;99.90
20700;DHT22;10511;51.232;9.420;2022-11-15T14:53:10;13.20;99.90
20700;DHT22;10511;51.232;9.420;2022-11-15T14:55:38;13.20;99.90
20700;DHT22;10511;51.232;9.420;2022-11-15T14:58:06;13.20;99.90
20700;DHT22;10511;51.232;9.420;2022-11-15T15:00:36;13.00;99.90
20700;DHT22;10511;51.232;9.420;2022-11-15T15:03:04;13.00;99.90
20700;DHT22;10511;51.232;9.420;2022-11-15T15:05:33;13.10;99.90
20700;DHT22;10511;51.232;9.420;2022-11-15T15:08:00;13.10;99.90
20700;DHT22;10511;51.232;9.420;2022-11-15T15:10:30;13.10;99.90
20700;DHT22;10511;51.232;9.420;2022-11-15T15:12:58;13.10;99.90
20700;DHT22;10511;51.232;9.420;2022-11-15T15:15:27;13.10;99.90
20700;DHT22;10511;51.232;9.420;2022-11-15T15:17:57;13.10;99.90
20700;DHT22;10511;51.232;9.420;2022-11-15T15:20:24;13.00;99.90
20700;DHT22;10511;51.232;9.420;2022-11-15T15:22:51;13.00;99.90
20700;DHT22;10511;51.232;9.420;2022-11-15T15:25:23;13.00;99.90
20700;DHT22;10511;51.232;9.420;2022-11-15T15:27:52;13.00;99.90
20700;DHT22;10511;51.232;9.420;2022-11-15T15:30:19;12.90;99.90
20700;DHT22;10511;51.232;9.420;2022-11-15T15:32:46;12.90;99.90
20700;DHT22;10511;51.232;9.420;2022-11-15T15:35:15;12.90;99.90
20700;DHT22;10511;51.232;9.420;2022-11-15T15:37:44;12.90;99.90
20700;DHT22;10511;51.232;9.420;2022-11-15T15:40:14;12.90;99.90
20700;DHT22;10511;51.232;9.420;2022-11-15T15:42:42;12.90;99.90
20700;DHT22;10511;51.232;9.420;2022-11-15T15:45:10;12.80;99.90
20700;DHT22;10511;51.232;9.420;2022-11-15T15:47:39;12.80;99.90
20700;DHT22;10511;51.232;9.420;2022-11-15T15:50:21;12.90;99.90
20700;DHT22;10511;51.232;9.420;2022-11-15T15:52:49;12.90;99.90
20700;DHT22;10511;51.232;9.420;2022-11-15T15:55:16;12.80;99.90
20700;DHT22;10511;51.232;9.420;2022-11-15T15:57:43;12.80;99.90
20700;DHT22;10511;51.232;9.420;2022-11-15T16:00:11;12.80;99.90
20700;DHT22;10511;51.232;9.420;2022-11-15T16:02:38;12.80;99.90
20700;DHT22;10511;51.232;9.420;2022-11-15T16:05:06;12.70;99.90
20700;DHT22;10511;51.232;9.420;2022-11-15T16:07:35;12.70;99.90
20700;DHT22;10511;51.232;9.420;2022-11-15T16:10:02;12.60;99.90
20700;DHT22;10511;51.232;9.420;2022-11-15T16:12:30;12.50;99.90
20700;DHT22;10511;51.232;9.420;2022-11-15T16:14:58;12.50;99.90
20700;DHT22;10511;51.232;9.420;2022-11-15T16:17:26;12.40;99.90
20700;DHT22;10511;51.232;9.420;2022-11-15T16:19:55;12.40;99.90
20700;DHT22;10511;51.232;9.420;2022-11-15T16:22:22;12.30;99.90